createdAt,value
2023-05-04T00:02:11.190Z,6.88
2023-05-04T00:04:37.912Z,6.05
2023-05-04T00:07:04.658Z,7.22
2023-05-04T00:09:31.983Z,6.93
2023-05-04T00:11:58.735Z,6.65
2023-05-04T00:14:25.484Z,5.82
2023-05-04T00:16:52.669Z,5.65
2023-05-04T00:19:19.698Z,6.00
2023-05-04T00:21:46.521Z,6.32
2023-05-04T00:24:13.275Z,5.65
2023-05-04T00:26:40.045Z,6.38
2023-05-04T00:29:06.816Z,6.45
2023-05-04T00:31:33.586Z,5.25
2023-05-04T00:34:00.670Z,4.90
2023-05-04T00:36:27.363Z,5.10
2023-05-04T00:38:54.918Z,5.43
2023-05-04T00:41:22.168Z,5.15
2023-05-04T00:43:49.561Z,5.30
2023-05-04T00:46:16.576Z,5.78
2023-05-04T00:48:47.103Z,4.75
2023-05-04T00:51:15.239Z,5.30
2023-05-04T00:53:42.145Z,5.03
2023-05-04T00:56:09.107Z,4.45
2023-05-04T00:58:35.862Z,4.78
2023-05-04T01:01:03.996Z,4.40
2023-05-04T01:03:31.864Z,5.13
2023-05-04T01:06:16.661Z,4.28
2023-05-04T01:08:52.192Z,4.50
2023-05-04T01:11:22.825Z,4.80
2023-05-04T01:13:51.357Z,5.20
2023-05-04T01:16:18.252Z,5.57
2023-05-04T01:18:44.984Z,5.63
2023-05-04T01:21:11.879Z,7.00
2023-05-04T01:23:38.700Z,6.35
2023-05-04T01:26:24.306Z,7.15
2023-05-04T01:29:18.265Z,6.65
2023-05-04T01:31:46.710Z,6.28
2023-05-04T01:34:14.382Z,6.18
2023-05-04T01:36:41.697Z,6.20
2023-05-04T01:39:08.488Z,5.47
2023-05-04T01:41:36.531Z,4.75
2023-05-04T01:44:04.365Z,5.88
2023-05-04T01:46:31.643Z,4.28
2023-05-04T01:48:58.602Z,5.88
2023-05-04T01:51:25.353Z,5.18
2023-05-04T01:53:52.230Z,4.22
2023-05-04T01:56:19.465Z,3.50
2023-05-04T01:58:46.158Z,4.25
2023-05-04T02:01:13.003Z,3.83
2023-05-04T02:03:40.928Z,3.70
2023-05-04T02:06:08.476Z,3.95
2023-05-04T02:08:35.532Z,3.42
2023-05-04T02:11:02.246Z,3.88
2023-05-04T02:13:29.003Z,3.90
2023-05-04T02:15:56.183Z,3.80
2023-05-04T02:18:23.146Z,4.18
2023-05-04T02:20:49.832Z,3.97
2023-05-04T02:23:16.596Z,3.88
2023-05-04T02:25:43.358Z,3.90
2023-05-04T02:28:10.222Z,3.17
2023-05-04T02:30:37.332Z,3.53
2023-05-04T02:33:04.497Z,4.05
2023-05-04T02:35:31.344Z,4.30
2023-05-04T02:37:58.198Z,3.90
2023-05-04T02:40:24.992Z,3.45
2023-05-04T02:42:51.915Z,3.35
2023-05-04T02:45:18.810Z,3.55
2023-05-04T02:47:45.727Z,3.30
2023-05-04T02:50:12.677Z,3.85
2023-05-04T02:52:39.454Z,3.72
2023-05-04T02:55:06.713Z,4.30
2023-05-04T02:57:33.534Z,4.28
2023-05-04T03:00:00.231Z,4.43
2023-05-04T03:02:27.024Z,3.47
2023-05-04T03:04:53.906Z,4.07
2023-05-04T03:07:20.807Z,4.15
2023-05-04T03:10:02.784Z,3.60
2023-05-04T03:12:30.060Z,4.57
2023-05-04T03:14:56.898Z,4.10
2023-05-04T03:17:23.687Z,4.05
2023-05-04T03:19:50.470Z,4.40
2023-05-04T03:22:17.144Z,4.68
2023-05-04T03:24:43.900Z,4.30
2023-05-04T03:27:10.671Z,4.35
2023-05-04T03:29:37.450Z,4.82
2023-05-04T03:32:04.377Z,5.70
2023-05-04T03:34:31.457Z,5.72
2023-05-04T03:36:58.517Z,4.82
2023-05-04T03:39:25.250Z,4.97
2023-05-04T03:41:54.819Z,5.40
2023-05-04T03:44:21.694Z,5.72
2023-05-04T03:46:48.437Z,5.60
2023-05-04T03:49:15.270Z,5.10
2023-05-04T03:51:42.408Z,5.40
2023-05-04T03:54:09.215Z,5.63
2023-05-04T03:56:35.886Z,5.53
2023-05-04T03:59:02.707Z,5.43
2023-05-04T04:01:36.521Z,5.47
2023-05-04T04:04:03.832Z,5.50
2023-05-04T04:06:31.147Z,6.35
2023-05-04T04:08:57.845Z,5.97
2023-05-04T04:11:24.599Z,5.93
2023-05-04T04:13:51.399Z,6.57
2023-05-04T04:16:20.011Z,6.32
2023-05-04T04:18:47.126Z,6.15
2023-05-04T04:21:13.990Z,4.55
2023-05-04T04:23:41.270Z,6.63
2023-05-04T04:26:08.001Z,5.90
2023-05-04T04:28:35.121Z,6.10
2023-05-04T04:31:03.289Z,6.78
2023-05-04T04:33:30.228Z,7.25
2023-05-04T04:35:56.968Z,7.25
2023-05-04T04:38:23.704Z,5.78
2023-05-04T04:40:50.660Z,6.30
2023-05-04T04:43:17.377Z,6.97
2023-05-04T04:45:45.294Z,7.05
2023-05-04T04:48:12.855Z,7.18
2023-05-04T04:50:40.237Z,6.78
2023-05-04T04:53:07.056Z,6.40
2023-05-04T04:55:34.819Z,5.47
2023-05-04T04:58:01.706Z,6.75
2023-05-04T05:00:28.686Z,6.60
2023-05-04T05:02:55.655Z,6.20
2023-05-04T05:05:22.459Z,6.30
2023-05-04T05:07:49.245Z,6.10
2023-05-04T05:10:16.179Z,5.88
2023-05-04T05:12:42.973Z,6.85
2023-05-04T05:15:10.178Z,5.88
2023-05-04T05:17:37.603Z,5.50
2023-05-04T05:20:10.690Z,6.32
2023-05-04T05:22:41.858Z,5.38
2023-05-04T05:25:08.793Z,5.75
2023-05-04T05:27:36.730Z,5.93
2023-05-04T05:30:05.862Z,6.00
2023-05-04T05:32:33.072Z,5.25
2023-05-04T05:34:59.932Z,5.10
2023-05-04T05:37:27.667Z,5.35
2023-05-04T05:39:54.472Z,5.30
2023-05-04T05:42:21.303Z,5.28
2023-05-04T05:44:48.042Z,5.15
2023-05-04T05:47:15.391Z,5.57
2023-05-04T05:49:44.160Z,4.57
2023-05-04T05:52:12.271Z,3.85
2023-05-04T05:54:40.185Z,4.50
2023-05-04T05:57:06.983Z,4.68
2023-05-04T05:59:33.909Z,4.40
2023-05-04T06:02:00.643Z,4.53
2023-05-04T06:04:27.379Z,3.83
2023-05-04T06:06:54.140Z,3.83
2023-05-04T06:09:21.120Z,3.72
2023-05-04T06:11:47.995Z,3.67
2023-05-04T06:14:14.713Z,3.25
2023-05-04T06:16:41.615Z,3.00
2023-05-04T06:19:08.562Z,3.40
2023-05-04T06:21:35.439Z,3.17
2023-05-04T06:24:02.260Z,2.95
2023-05-04T06:26:29.422Z,2.90
2023-05-04T06:28:56.078Z,2.70
2023-05-04T06:31:24.222Z,3.30
2023-05-04T06:33:51.086Z,3.40
2023-05-04T06:36:18.135Z,3.45
2023-05-04T06:38:44.832Z,4.32
2023-05-04T06:41:11.761Z,3.97
2023-05-04T06:43:42.268Z,3.03
2023-05-04T06:46:09.700Z,3.00
2023-05-04T06:48:36.768Z,3.00
2023-05-04T06:51:03.768Z,2.90
2023-05-04T06:53:30.784Z,3.30
2023-05-04T06:55:57.801Z,4.47
2023-05-04T06:58:25.888Z,3.60
2023-05-04T07:00:53.072Z,3.05
2023-05-04T07:03:20.079Z,3.70
2023-05-04T07:05:48.720Z,3.17
2023-05-04T07:08:15.406Z,2.90
2023-05-04T07:10:42.199Z,3.15
2023-05-04T07:13:09.681Z,3.17
2023-05-04T07:15:36.997Z,2.63
2023-05-04T07:18:03.945Z,2.00
2023-05-04T07:20:30.753Z,2.75
2023-05-04T07:22:57.581Z,2.80
2023-05-04T07:25:25.838Z,2.75
2023-05-04T07:27:52.964Z,3.03
2023-05-04T07:30:20.448Z,2.40
2023-05-04T07:32:47.283Z,2.65
2023-05-04T07:35:14.728Z,3.22
2023-05-04T07:37:41.591Z,2.53
2023-05-04T07:40:09.584Z,2.50
2023-05-04T07:42:36.529Z,3.53
2023-05-04T07:45:04.230Z,2.80
2023-05-04T07:47:30.994Z,3.15
2023-05-04T07:49:57.791Z,2.55
2023-05-04T07:52:24.594Z,2.28
2023-05-04T07:54:54.905Z,1.85
2023-05-04T07:57:21.894Z,2.28
2023-05-04T07:59:48.699Z,2.75
2023-05-04T08:02:15.846Z,2.63
2023-05-04T08:04:42.689Z,2.75
2023-05-04T08:07:09.420Z,2.90
2023-05-04T08:09:36.241Z,3.05
2023-05-04T08:12:04.524Z,2.60
2023-05-04T08:14:31.384Z,2.33
2023-05-04T08:16:58.128Z,2.13
2023-05-04T08:19:24.950Z,3.13
2023-05-04T08:21:51.643Z,2.30
2023-05-04T08:24:18.815Z,2.22
2023-05-04T08:30:45.427Z,2.70
2023-05-04T08:33:12.316Z,2.42
2023-05-04T08:35:39.192Z,2.30
2023-05-04T08:38:06.017Z,2.53
2023-05-04T08:40:33.732Z,2.15
2023-05-04T08:43:00.778Z,2.40
2023-05-04T08:45:29.043Z,2.20
2023-05-04T08:47:56.254Z,2.95
2023-05-04T08:50:23.449Z,2.80
2023-05-04T08:52:52.331Z,1.75
2023-05-04T08:55:19.925Z,2.20
2023-05-04T08:57:47.862Z,2.45
2023-05-04T09:00:17.833Z,2.10
2023-05-04T09:02:45.849Z,2.28
2023-05-04T09:05:13.490Z,2.53
2023-05-04T09:07:40.248Z,1.83
2023-05-04T09:10:07.933Z,2.13
2023-05-04T09:12:34.915Z,2.53
2023-05-04T09:15:05.893Z,2.10
2023-05-04T09:17:33.045Z,2.10
2023-05-04T09:20:03.785Z,2.53
2023-05-04T09:22:31.278Z,2.10
2023-05-04T09:25:07.456Z,2.47
2023-05-04T09:27:34.143Z,2.35
2023-05-04T09:30:00.874Z,2.20
2023-05-04T09:32:28.534Z,2.17
2023-05-04T09:34:55.250Z,2.40
2023-05-04T09:37:22.396Z,2.65
2023-05-04T09:39:58.207Z,2.40
2023-05-04T09:42:26.595Z,1.75
2023-05-04T09:45:04.292Z,2.72
2023-05-04T09:47:33.674Z,2.35
2023-05-04T09:50:20.153Z,2.45
2023-05-04T09:52:48.108Z,1.98
2023-05-04T09:55:16.870Z,2.55
2023-05-04T09:57:46.391Z,1.80
2023-05-04T10:00:16.156Z,2.03
2023-05-04T10:02:47.332Z,3.05
2023-05-04T10:05:18.419Z,1.90
2023-05-04T10:10:14.789Z,2.65
2023-05-04T10:12:41.666Z,2.00
2023-05-04T10:15:10.268Z,1.95
2023-05-04T10:17:48.177Z,1.90
2023-05-04T10:20:54.986Z,2.13
2023-05-04T10:23:42.912Z,1.90
2023-05-04T10:26:35.491Z,1.90
2023-05-04T10:29:24.096Z,1.63
2023-05-04T10:31:52.715Z,1.92
2023-05-04T10:34:34.202Z,2.00
2023-05-04T10:37:02.975Z,2.17
2023-05-04T10:39:31.979Z,1.73
2023-05-04T10:42:08.562Z,2.05
2023-05-04T10:44:48.411Z,1.98
2023-05-04T10:47:15.749Z,2.42
2023-05-04T10:49:42.630Z,1.90
2023-05-04T10:52:13.766Z,1.67
2023-05-04T10:54:41.566Z,2.35
2023-05-04T10:57:11.029Z,3.50
2023-05-04T10:59:39.249Z,4.40
2023-05-04T11:02:06.783Z,3.65
2023-05-04T11:04:34.953Z,3.20
2023-05-04T11:07:06.376Z,4.55
2023-05-04T11:09:42.301Z,3.30
2023-05-04T11:12:10.701Z,4.00
2023-05-04T11:14:42.257Z,3.78
2023-05-04T11:17:26.884Z,3.92
2023-05-04T11:19:54.824Z,4.25
2023-05-04T11:22:21.933Z,3.78
2023-05-04T11:24:49.116Z,4.35
2023-05-04T11:27:26.114Z,3.63
2023-05-04T11:29:56.805Z,3.83
2023-05-04T11:32:34.891Z,3.60
2023-05-04T11:35:02.326Z,3.60
2023-05-04T11:37:29.820Z,3.85
2023-05-04T11:39:58.106Z,3.60
2023-05-04T11:42:24.860Z,3.92
2023-05-04T11:44:52.470Z,3.40
2023-05-04T11:47:19.390Z,3.92
2023-05-04T11:49:47.551Z,2.20
2023-05-04T11:52:14.505Z,3.20
2023-05-04T11:54:42.065Z,4.90
2023-05-04T11:57:09.094Z,3.42
2023-05-04T11:59:36.077Z,3.67
2023-05-04T12:02:03.181Z,3.55
2023-05-04T12:04:33.297Z,3.53
2023-05-04T12:07:01.822Z,3.85
2023-05-04T12:09:28.722Z,4.03
2023-05-04T12:11:58.408Z,3.80
2023-05-04T12:14:28.267Z,4.15
2023-05-04T12:16:56.160Z,3.63
2023-05-04T12:19:23.125Z,3.08
2023-05-04T12:21:52.277Z,3.90
2023-05-04T12:24:22.350Z,4.15
2023-05-04T12:26:49.732Z,4.20
2023-05-04T12:29:16.753Z,4.63
2023-05-04T12:31:43.684Z,5.07
2023-05-04T12:34:10.576Z,4.40
2023-05-04T12:36:37.278Z,4.45
2023-05-04T12:39:04.166Z,4.38
2023-05-04T12:41:31.592Z,3.85
2023-05-04T12:43:58.532Z,4.40
2023-05-04T12:46:25.678Z,4.47
2023-05-04T12:48:52.485Z,3.45
2023-05-04T12:51:19.255Z,3.28
2023-05-04T12:53:46.131Z,3.30
2023-05-04T12:56:12.803Z,3.85
2023-05-04T12:58:39.628Z,4.03
2023-05-04T13:01:06.362Z,3.88
2023-05-04T13:03:33.554Z,4.15
2023-05-04T13:06:00.384Z,4.57
2023-05-04T13:08:27.130Z,3.75
2023-05-04T13:10:53.813Z,4.20
2023-05-04T13:13:23.379Z,4.28
2023-05-04T13:15:50.722Z,4.63
2023-05-04T13:18:17.557Z,3.92
2023-05-04T13:20:44.429Z,3.88
2023-05-04T13:23:11.485Z,4.07
2023-05-04T13:25:38.279Z,3.85
2023-05-04T13:28:05.042Z,3.90
2023-05-04T13:30:34.679Z,3.17
2023-05-04T13:33:05.562Z,4.22
2023-05-04T13:35:37.545Z,3.65
2023-05-04T13:38:04.284Z,3.42
2023-05-04T13:40:31.467Z,3.50
2023-05-04T13:42:58.341Z,2.90
2023-05-04T13:45:25.698Z,3.53
2023-05-04T13:47:53.608Z,3.53
2023-05-04T13:50:20.540Z,3.47
2023-05-04T13:52:47.722Z,3.45
2023-05-04T13:55:16.601Z,2.97
2023-05-04T13:57:43.419Z,3.70
2023-05-04T14:00:11.148Z,3.30
2023-05-04T14:02:38.070Z,3.00
2023-05-04T14:05:05.308Z,3.53
2023-05-04T14:07:34.689Z,2.75
2023-05-04T14:10:01.854Z,2.80
2023-05-04T14:12:28.923Z,2.90
2023-05-04T14:14:55.895Z,2.75
2023-05-04T14:17:23.038Z,2.58
2023-05-04T14:19:49.921Z,2.75
2023-05-04T14:22:16.737Z,2.30
2023-05-04T14:24:43.624Z,1.95
2023-05-04T14:27:10.406Z,1.55
2023-05-04T14:29:37.186Z,1.40
2023-05-04T14:32:04.537Z,1.30
2023-05-04T14:34:31.342Z,1.35
2023-05-04T14:36:58.129Z,1.42
2023-05-04T14:39:25.013Z,1.50
2023-05-04T14:41:53.314Z,1.40
2023-05-04T14:44:22.611Z,1.35
2023-05-04T14:46:49.465Z,1.88
2023-05-04T14:49:28.348Z,1.52
2023-05-04T14:52:03.335Z,1.85
2023-05-04T14:54:30.010Z,1.50
2023-05-04T14:56:56.785Z,1.85
2023-05-04T14:59:23.543Z,1.45
2023-05-04T15:01:50.413Z,1.70
2023-05-04T15:04:17.659Z,1.75
2023-05-04T15:06:44.542Z,1.58
2023-05-04T15:09:11.560Z,1.70
2023-05-04T15:11:38.733Z,1.60
2023-05-04T15:14:05.625Z,1.83
2023-05-04T15:16:33.294Z,2.13
2023-05-04T15:19:00.987Z,2.55
2023-05-04T15:21:28.167Z,1.67
2023-05-04T15:23:55.296Z,1.70
2023-05-04T15:26:22.376Z,2.75
2023-05-04T15:28:49.574Z,2.03
2023-05-04T15:31:19.915Z,2.13
2023-05-04T15:33:48.816Z,2.10
2023-05-04T15:36:15.743Z,2.40
2023-05-04T15:38:43.761Z,3.33
2023-05-04T15:41:11.061Z,3.67
2023-05-04T15:43:37.910Z,4.10
2023-05-04T15:46:04.637Z,3.95
2023-05-04T15:48:31.393Z,3.72
2023-05-04T15:50:58.157Z,4.72
2023-05-04T15:53:24.951Z,4.38
2023-05-04T15:55:51.762Z,3.90
2023-05-04T15:58:18.693Z,3.70
2023-05-04T16:00:46.118Z,3.58
2023-05-04T16:03:12.964Z,3.55
2023-05-04T16:05:39.801Z,2.60
2023-05-04T16:08:06.577Z,2.20
2023-05-04T16:10:34.334Z,2.50
2023-05-04T16:13:04.003Z,2.25
2023-05-04T16:15:31.237Z,2.05
2023-05-04T16:17:58.144Z,2.25
2023-05-04T16:20:25.936Z,2.30
2023-05-04T16:22:52.714Z,1.80
2023-05-04T16:25:19.699Z,1.67
2023-05-04T16:27:46.780Z,2.40
2023-05-04T16:30:15.471Z,2.08
2023-05-04T16:32:42.261Z,2.28
2023-05-04T16:35:09.459Z,1.83
2023-05-04T16:37:37.827Z,1.95
2023-05-04T16:40:15.170Z,1.90
2023-05-04T16:42:43.009Z,1.75
2023-05-04T16:45:13.911Z,2.28
2023-05-04T16:47:42.247Z,3.10
2023-05-04T16:50:13.303Z,2.55
2023-05-04T16:52:40.306Z,2.38
2023-05-04T16:55:10.677Z,2.85
2023-05-04T16:57:38.975Z,2.65
2023-05-04T17:00:07.137Z,2.10
2023-05-04T17:02:35.211Z,2.15
2023-05-04T17:05:02.105Z,2.47
2023-05-04T17:07:28.861Z,2.00
2023-05-04T17:09:55.571Z,2.22
2023-05-04T17:12:23.354Z,2.55
2023-05-04T17:14:50.334Z,2.40
2023-05-04T17:17:17.109Z,2.63
2023-05-04T17:19:43.858Z,3.83
2023-05-04T17:22:11.357Z,2.53
2023-05-04T17:24:38.168Z,1.83
2023-05-04T17:27:04.913Z,2.40
2023-05-04T17:29:31.697Z,2.65
2023-05-04T17:31:58.605Z,2.00
2023-05-04T17:34:25.473Z,1.90
2023-05-04T17:36:52.478Z,1.67
2023-05-04T17:39:19.473Z,2.22
2023-05-04T17:41:49.114Z,1.42
2023-05-04T17:44:16.425Z,1.38
2023-05-04T17:46:43.588Z,1.48
2023-05-04T17:49:10.901Z,1.10
2023-05-04T17:51:39.155Z,1.20
2023-05-04T17:54:06.020Z,1.30
2023-05-04T17:56:32.856Z,1.58
2023-05-04T17:58:59.589Z,1.40
2023-05-04T18:01:26.827Z,0.98
2023-05-04T18:03:53.627Z,1.27
2023-05-04T18:06:20.406Z,1.40
2023-05-04T18:08:47.129Z,0.90
2023-05-04T18:11:14.011Z,0.73
2023-05-04T18:13:40.876Z,1.05
2023-05-04T18:16:07.867Z,0.70
2023-05-04T18:18:34.692Z,0.75
2023-05-04T18:21:01.493Z,0.70
2023-05-04T18:23:29.124Z,1.15
2023-05-04T18:25:56.040Z,0.77
2023-05-04T18:28:22.968Z,0.57
2023-05-04T18:30:49.781Z,0.60
2023-05-04T18:33:16.732Z,0.70
2023-05-04T18:35:43.496Z,0.85
2023-05-04T18:38:10.594Z,0.47
2023-05-04T18:40:37.291Z,0.40
2023-05-04T18:43:04.154Z,0.60
2023-05-04T18:45:31.496Z,1.33
2023-05-04T18:47:58.463Z,1.08
2023-05-04T18:50:25.336Z,0.82
2023-05-04T18:52:53.995Z,0.43
2023-05-04T18:55:20.959Z,0.65
2023-05-04T18:57:47.711Z,0.55
2023-05-04T19:00:15.193Z,0.90
2023-05-04T19:02:41.952Z,0.80
2023-05-04T19:05:10.814Z,0.65
2023-05-04T19:07:39.133Z,0.55
2023-05-04T19:10:07.260Z,0.60
2023-05-04T19:12:34.307Z,0.77
2023-05-04T19:15:01.344Z,0.60
2023-05-04T19:17:28.488Z,0.80
2023-05-04T19:19:55.366Z,0.60
2023-05-04T19:22:22.245Z,0.70
2023-05-04T19:24:52.184Z,0.60
2023-05-04T19:27:19.269Z,0.70
2023-05-04T19:29:46.622Z,1.02
2023-05-04T19:32:23.412Z,0.98
2023-05-04T19:34:52.171Z,0.60
2023-05-04T19:37:18.873Z,1.10
2023-05-04T19:39:45.865Z,0.70
2023-05-04T19:42:12.536Z,0.80
2023-05-04T19:44:39.387Z,0.73
2023-05-04T19:47:06.722Z,1.05
2023-05-04T19:49:33.666Z,0.77
2023-05-04T19:52:00.801Z,0.70
2023-05-04T19:54:27.537Z,0.60
2023-05-04T19:56:54.293Z,1.10
2023-05-04T19:59:21.034Z,1.30
2023-05-04T20:01:47.985Z,0.60
2023-05-04T20:04:15.072Z,1.08
2023-05-04T20:06:41.932Z,0.80
2023-05-04T20:09:08.709Z,0.73
2023-05-04T20:11:36.321Z,0.80
2023-05-04T20:14:03.198Z,1.48
2023-05-04T20:16:29.996Z,1.13
2023-05-04T20:18:56.867Z,1.10
2023-05-04T20:21:24.362Z,1.15
2023-05-04T20:23:51.083Z,1.52
2023-05-04T20:26:17.912Z,1.58
2023-05-04T20:28:44.701Z,0.77
2023-05-04T20:31:12.215Z,0.70
2023-05-04T20:33:39.123Z,1.60
2023-05-04T20:36:07.082Z,0.80
2023-05-04T20:38:34.235Z,1.20
2023-05-04T20:41:08.241Z,1.52
2023-05-04T20:43:36.153Z,1.13
2023-05-04T20:46:04.252Z,0.90
2023-05-04T20:48:31.727Z,1.27
2023-05-04T20:51:12.696Z,1.80
2023-05-04T20:53:41.255Z,1.40
2023-05-04T20:56:08.040Z,1.20
2023-05-04T20:58:34.851Z,1.35
2023-05-04T21:01:05.487Z,1.20
2023-05-04T21:03:33.013Z,0.90
2023-05-04T21:06:01.519Z,1.48
2023-05-04T21:08:28.586Z,1.02
2023-05-04T21:10:55.556Z,1.20
2023-05-04T21:13:22.403Z,1.35
2023-05-04T21:15:49.180Z,1.60
2023-05-04T21:18:16.039Z,1.20
2023-05-04T21:20:42.754Z,2.20
2023-05-04T21:23:09.620Z,1.58
2023-05-04T21:25:36.336Z,1.63
2023-05-04T21:28:03.604Z,1.75
2023-05-04T21:30:30.302Z,1.73
2023-05-04T21:32:57.161Z,1.30
2023-05-04T21:35:24.561Z,1.27
2023-05-04T21:37:51.335Z,1.98
2023-05-04T21:40:18.165Z,1.50
2023-05-04T21:42:44.849Z,1.88
2023-05-04T21:45:11.778Z,1.40
2023-05-04T21:47:38.698Z,1.52
2023-05-04T21:50:06.415Z,1.73
2023-05-04T21:52:33.340Z,2.55
2023-05-04T21:55:00.169Z,1.65
2023-05-04T21:57:27.657Z,1.90
2023-05-04T21:59:54.382Z,2.08
2023-05-04T22:02:21.214Z,2.15
2023-05-04T22:04:47.924Z,1.83
2023-05-04T22:07:15.875Z,2.13
2023-05-04T22:09:42.739Z,2.13
2023-05-04T22:12:09.597Z,2.08
2023-05-04T22:14:36.343Z,1.83
2023-05-04T22:17:03.274Z,2.22
2023-05-04T22:19:30.124Z,2.78
2023-05-04T22:21:56.972Z,2.28
2023-05-04T22:24:23.745Z,1.95
2023-05-04T22:26:50.916Z,2.25
2023-05-04T22:29:17.730Z,2.63
2023-05-04T22:31:44.477Z,2.92
2023-05-04T22:34:11.200Z,2.58
2023-05-04T22:36:37.955Z,3.10
2023-05-04T22:39:04.760Z,2.80
2023-05-04T22:41:31.572Z,2.35
2023-05-04T22:43:58.329Z,3.10
2023-05-04T22:46:25.701Z,2.58
2023-05-04T22:48:52.685Z,3.10
2023-05-04T22:51:19.443Z,3.10
2023-05-04T22:53:46.230Z,4.25
2023-05-04T22:56:13.082Z,4.32
2023-05-04T22:58:39.886Z,3.47
2023-05-04T23:01:10.522Z,3.00
2023-05-04T23:03:38.283Z,4.75
2023-05-04T23:06:05.672Z,3.63
2023-05-04T23:08:32.486Z,4.18
2023-05-04T23:10:59.389Z,4.03
2023-05-04T23:13:26.206Z,4.57
2023-05-04T23:15:53.242Z,4.60
2023-05-04T23:18:20.046Z,4.72
2023-05-04T23:20:46.798Z,4.53
2023-05-04T23:23:13.739Z,4.78
2023-05-04T23:25:40.475Z,4.75
2023-05-04T23:28:07.320Z,4.63
2023-05-04T23:30:34.029Z,4.50
2023-05-04T23:33:00.772Z,4.60
2023-05-04T23:35:28.221Z,4.18
2023-05-04T23:37:54.973Z,4.43
2023-05-04T23:40:21.874Z,4.35
2023-05-04T23:42:50.419Z,5.35
2023-05-04T23:45:17.313Z,5.05
2023-05-04T23:47:44.211Z,4.70
2023-05-04T23:50:11.682Z,4.90
2023-05-04T23:52:38.553Z,5.53
2023-05-04T23:55:06.454Z,5.32
2023-05-04T23:57:33.192Z,4.75
2023-05-04T23:59:59.958Z,4.28
